Time,TemperatureF,DewpointF,PressureIn,WindDirection,WindDirectionDegrees,WindSpeedMPH,WindSpeedGustMPH,Humidity,HourlyPrecipIn,Conditions,Clouds,dailyrainin,SoftwareType,DateUTC
2013-10-21 00:01:00,35.5,33.7,30.13,SSW,196,0.0,0.0,93,0.00,,,0.00,Wunderground v.1.15,2013-10-21 04:01:00,
2013-10-21 00:05:00,35.5,33.7,30.13,SSW,196,0.0,0.0,93,0.00,,,0.00,Wunderground v.1.15,2013-10-21 04:05:00,
2013-10-21 00:10:00,35.5,33.7,30.13,SSW,196,0.0,0.0,93,0.00,,,0.00,Wunderground v.1.15,2013-10-21 04:10:00,
2013-10-21 00:15:00,35.3,33.5,30.13,SSW,196,0.0,0.0,93,0.00,,,0.00,Wunderground v.1.15,2013-10-21 04:15:00,
2013-10-21 00:20:00,35.3,33.5,30.13,SSW,196,0.0,0.0,93,0.00,,,0.00,Wunderground v.1.15,2013-10-21 04:20:00,
2013-10-21 00:25:00,35.0,33.2,30.13,SSW,196,0.0,0.0,93,0.00,,,0.00,Wunderground v.1.15,2013-10-21 04:25:00,
2013-10-21 00:30:00,35.0,33.2,30.13,SSW,196,0.0,0.0,93,0.00,,,0.00,Wunderground v.1.15,2013-10-21 04:30:00,
2013-10-21 00:40:00,34.7,33.2,30.12,SSW,196,0.0,0.0,94,0.00,,,0.00,Wunderground v.1.15,2013-10-21 04:40:00,
2013-10-21 00:45:00,34.6,33.1,30.12,SSW,196,0.0,0.0,94,0.00,,,0.00,Wunderground v.1.15,2013-10-21 04:45:00,
2013-10-21 00:50:00,34.6,33.1,30.12,SSW,196,0.0,0.0,94,0.00,,,0.00,Wunderground v.1.15,2013-10-21 04:50:00,
2013-10-21 00:55:00,34.6,33.1,30.12,SSW,196,0.0,0.0,94,0.00,,,0.00,Wunderground v.1.15,2013-10-21 04:55:00,
2013-10-21 01:00:00,34.6,33.1,30.12,SSW,196,0.0,0.0,94,0.00,,,0.00,Wunderground v.1.15,2013-10-21 05:00:00,
2013-10-21 01:05:00,34.6,33.1,30.12,SSW,196,0.0,0.0,94,0.00,,,0.00,Wunderground v.1.15,2013-10-21 05:05:00,
2013-10-21 01:15:00,34.4,33.1,30.12,SSW,196,0.0,0.0,95,0.00,,,0.00,Wunderground v.1.15,2013-10-21 05:15:00,
2013-10-21 01:25:00,34.3,33.0,30.12,SSW,196,0.0,0.0,95,0.00,,,0.00,Wunderground v.1.15,2013-10-21 05:25:00,
2013-10-21 01:35:00,34.3,33.0,30.12,SSW,196,0.0,0.0,95,0.00,,,0.00,Wunderground v.1.15,2013-10-21 05:35:00,
2013-10-21 01:45:00,34.0,32.7,30.12,SSW,196,0.0,0.0,95,0.00,,,0.00,Wunderground v.1.15,2013-10-21 05:45:00,
2013-10-21 01:50:00,34.0,32.7,30.12,SSW,196,0.0,0.0,95,0.00,,,0.00,Wunderground v.1.15,2013-10-21 05:50:00,
2013-10-21 01:55:00,33.8,32.5,30.12,SSW,196,0.0,0.0,95,0.00,,,0.00,Wunderground v.1.15,2013-10-21 05:55:00,
2013-10-21 02:00:00,33.8,32.5,30.12,SSW,196,0.0,0.0,95,0.00,,,0.00,Wunderground v.1.15,2013-10-21 06:00:00,
2013-10-21 02:10:00,33.8,32.5,30.12,SSW,196,0.0,0.0,95,0.00,,,0.00,Wunderground v.1.15,2013-10-21 06:10:00,
2013-10-21 02:20:00,33.7,32.4,30.13,SSW,196,0.0,0.0,95,0.00,,,0.00,Wunderground v.1.15,2013-10-21 06:20:00,
2013-10-21 02:30:00,33.7,32.4,30.13,SSW,196,0.0,0.0,95,0.00,,,0.00,Wunderground v.1.15,2013-10-21 06:30:00,
2013-10-21 02:35:00,33.7,32.4,30.13,SSW,196,0.0,0.0,95,0.00,,,0.00,Wunderground v.1.15,2013-10-21 06:35:00,
2013-10-21 02:45:00,33.7,32.4,30.13,SSW,196,0.0,0.0,95,0.00,,,0.00,Wunderground v.1.15,2013-10-21 06:45:00,
2013-10-21 02:55:00,33.4,32.4,30.13,SSW,196,0.0,0.0,96,0.00,,,0.00,Wunderground v.1.15,2013-10-21 06:55:00,
2013-10-21 03:00:00,33.4,32.4,30.13,SSW,196,0.0,0.0,96,0.00,,,0.00,Wunderground v.1.15,2013-10-21 07:00:00,
2013-10-21 03:05:00,33.4,32.4,30.13,SSW,196,0.0,0.0,96,0.00,,,0.00,Wunderground v.1.15,2013-10-21 07:05:00,
2013-10-21 03:10:00,33.4,32.4,30.13,SSW,196,0.0,0.0,96,0.00,,,0.00,Wunderground v.1.15,2013-10-21 07:10:00,
2013-10-21 03:15:00,33.4,32.4,30.13,SSW,196,0.0,0.0,96,0.00,,,0.00,Wunderground v.1.15,2013-10-21 07:15:00,
2013-10-21 03:25:00,33.1,32.1,30.13,SSW,196,0.0,0.0,96,0.00,,,0.00,Wunderground v.1.15,2013-10-21 07:25:00,
2013-10-21 03:30:00,33.1,32.1,30.13,SSW,196,0.0,0.0,96,0.00,,,0.00,Wunderground v.1.15,2013-10-21 07:30:00,
2013-10-21 03:40:00,33.1,32.1,30.13,SSW,196,0.0,0.0,96,0.00,,,0.00,Wunderground v.1.15,2013-10-21 07:40:00,
2013-10-21 03:45:00,32.9,31.9,30.13,SSW,196,0.0,0.0,96,0.00,,,0.00,Wunderground v.1.15,2013-10-21 07:45:00,
2013-10-21 03:55:00,32.9,31.9,30.13,SSW,196,0.0,0.0,96,0.00,,,0.00,Wunderground v.1.15,2013-10-21 07:55:00,
2013-10-21 04:05:00,33.1,32.1,30.13,SSW,196,0.0,0.0,96,0.00,,,0.00,Wunderground v.1.15,2013-10-21 08:05:00,
2013-10-21 04:10:00,33.1,32.1,30.13,SSW,196,0.0,0.0,96,0.00,,,0.00,Wunderground v.1.15,2013-10-21 08:10:00,
2013-10-21 04:20:00,33.1,32.1,30.13,SSW,196,0.0,0.0,96,0.00,,,0.00,Wunderground v.1.15,2013-10-21 08:20:00,
2013-10-21 04:25:00,32.9,31.9,30.14,SSW,196,0.0,0.0,96,0.00,,,0.00,Wunderground v.1.15,2013-10-21 08:25:00,
2013-10-21 04:30:00,32.8,31.8,30.13,SSW,196,0.0,0.0,96,0.00,,,0.00,Wunderground v.1.15,2013-10-21 08:30:00,
2013-10-21 04:40:00,32.7,31.9,30.14,SSW,196,0.0,0.0,97,0.00,,,0.00,Wunderground v.1.15,2013-10-21 08:40:00,
2013-10-21 04:50:00,32.8,32.0,30.14,SSW,196,0.0,0.0,97,0.00,,,0.00,Wunderground v.1.15,2013-10-21 08:50:00,
2013-10-21 05:00:00,32.9,32.1,30.14,SSW,196,0.0,0.0,97,0.00,,,0.00,Wunderground v.1.15,2013-10-21 09:00:00,
2013-10-21 05:10:00,32.8,32.0,30.14,SSW,196,0.0,0.0,97,0.00,,,0.00,Wunderground v.1.15,2013-10-21 09:10:00,
2013-10-21 05:20:00,32.7,31.9,30.15,SSW,196,0.0,0.0,97,0.00,,,0.00,Wunderground v.1.15,2013-10-21 09:20:00,
2013-10-21 05:30:00,32.5,31.7,30.15,SSW,196,0.0,0.0,97,0.00,,,0.00,Wunderground v.1.15,2013-10-21 09:30:00,
2013-10-21 05:40:00,32.5,31.7,30.15,SSW,196,0.0,0.0,97,0.00,,,0.00,Wunderground v.1.15,2013-10-21 09:40:00,
2013-10-21 05:45:00,32.7,31.9,30.15,SSW,196,0.0,0.0,97,0.00,,,0.00,Wunderground v.1.15,2013-10-21 09:45:00,
2013-10-21 05:50:00,32.7,31.9,30.15,SSW,196,0.0,0.0,97,0.00,,,0.00,Wunderground v.1.15,2013-10-21 09:50:00,
2013-10-21 06:00:00,32.5,31.7,30.15,SSW,196,0.0,0.0,97,0.00,,,0.00,Wunderground v.1.15,2013-10-21 10:00:00,
2013-10-21 06:10:00,32.7,31.9,30.15,SSW,196,0.0,0.0,97,0.00,,,0.00,Wunderground v.1.15,2013-10-21 10:10:00,
2013-10-21 06:20:00,32.5,31.7,30.16,SSW,196,0.0,0.0,97,0.00,,,0.00,Wunderground v.1.15,2013-10-21 10:20:00,
2013-10-21 06:25:00,32.5,31.7,30.16,SSW,196,0.0,0.0,97,0.00,,,0.00,Wunderground v.1.15,2013-10-21 10:25:00,
2013-10-21 06:30:00,32.5,31.7,30.16,SSW,196,0.0,0.0,97,0.00,,,0.00,Wunderground v.1.15,2013-10-21 10:30:00,
2013-10-21 06:40:00,32.4,31.6,30.16,SSW,196,0.0,0.0,97,0.00,,,0.00,Wunderground v.1.15,2013-10-21 10:40:00,
2013-10-21 06:50:00,32.2,31.4,30.15,SSW,196,0.0,0.0,97,0.00,,,0.00,Wunderground v.1.15,2013-10-21 10:50:00,
2013-10-21 06:55:00,32.1,31.3,30.15,SSW,196,0.0,0.0,97,0.00,,,0.00,Wunderground v.1.15,2013-10-21 10:55:00,
2013-10-21 07:00:00,32.1,31.3,30.15,SSW,196,0.0,0.0,97,0.00,,,0.00,Wunderground v.1.15,2013-10-21 11:00:00,
2013-10-21 07:10:00,32.2,31.4,30.15,SSW,196,0.0,0.0,97,0.00,,,0.00,Wunderground v.1.15,2013-10-21 11:10:00,
2013-10-21 07:20:00,32.1,31.3,30.16,SSW,196,0.0,0.0,97,0.00,,,0.00,Wunderground v.1.15,2013-10-21 11:20:00,
2013-10-21 07:30:00,32.1,31.3,30.16,SSW,196,0.0,0.0,97,0.00,,,0.00,Wunderground v.1.15,2013-10-21 11:30:00,
2013-10-21 07:35:00,32.1,31.6,30.16,SSW,196,0.0,0.0,98,0.00,,,0.00,Wunderground v.1.15,2013-10-21 11:35:00,
2013-10-21 07:40:00,32.1,31.6,30.16,SSW,196,0.0,0.0,98,0.00,,,0.00,Wunderground v.1.15,2013-10-21 11:40:00,
2013-10-21 07:50:00,32.1,31.3,30.16,SSW,196,0.0,0.0,97,0.00,,,0.00,Wunderground v.1.15,2013-10-21 11:50:00,
2013-10-21 08:00:00,32.2,31.7,30.16,SSW,196,0.0,0.0,98,0.00,,,0.00,Wunderground v.1.15,2013-10-21 12:00:00,
2013-10-21 08:05:00,32.4,31.9,30.16,SSW,196,0.0,0.0,98,0.00,,,0.00,Wunderground v.1.15,2013-10-21 12:05:00,
2013-10-21 08:10:00,32.5,32.0,30.16,SSW,196,0.0,0.0,98,0.00,,,0.00,Wunderground v.1.15,2013-10-21 12:10:00,
2013-10-21 08:20:00,32.9,32.4,30.17,SSW,196,0.0,0.0,98,0.00,,,0.00,Wunderground v.1.15,2013-10-21 12:20:00,
2013-10-21 08:30:00,33.8,33.5,30.17,SSW,196,0.0,0.0,99,0.00,,,0.01,Wunderground v.1.15,2013-10-21 12:30:00,
2013-10-21 08:40:00,34.7,34.4,30.17,SSW,196,0.0,0.0,99,0.00,,,0.01,Wunderground v.1.15,2013-10-21 12:40:00,
2013-10-21 08:50:00,36.0,35.7,30.17,SSW,196,0.0,0.0,99,0.00,,,0.01,Wunderground v.1.15,2013-10-21 12:50:00,
2013-10-21 09:00:00,37.5,37.2,30.17,SSW,196,0.0,0.0,99,0.00,,,0.01,Wunderground v.1.15,2013-10-21 13:00:00,
2013-10-21 09:10:00,38.9,38.4,30.17,SSW,202,0.0,0.0,98,0.00,,,0.01,Wunderground v.1.15,2013-10-21 13:10:00,
2013-10-21 09:20:00,40.3,39.5,30.17,WNW,300,0.0,0.0,97,0.00,,,0.01,Wunderground v.1.15,2013-10-21 13:20:00,
2013-10-21 09:30:00,41.6,40.3,30.17,WNW,300,0.0,0.0,95,0.00,,,0.01,Wunderground v.1.15,2013-10-21 13:30:00,
2013-10-21 09:35:00,42.2,40.6,30.17,NW,309,0.0,3.0,94,0.00,,,0.01,Wunderground v.1.15,2013-10-21 13:35:00,
2013-10-21 09:40:00,42.8,40.9,30.17,NW,310,0.0,0.0,93,0.00,,,0.01,Wunderground v.1.15,2013-10-21 13:40:00,
2013-10-21 09:50:00,43.9,41.4,30.17,NW,310,0.0,0.0,91,0.00,,,0.01,Wunderground v.1.15,2013-10-21 13:50:00,
2013-10-21 10:05:00,46.2,42.8,30.16,NW,311,1.0,4.0,88,0.00,,,0.01,Wunderground v.1.15,2013-10-21 14:05:00,
2013-10-21 10:10:00,47.0,43.3,30.16,NW,311,0.0,0.0,87,0.00,,,0.01,Wunderground v.1.15,2013-10-21 14:10:00,
2013-10-21 10:20:00,48.2,43.9,30.16,NW,311,0.0,0.0,85,0.00,,,0.01,Wunderground v.1.15,2013-10-21 14:20:00,
2013-10-21 10:30:00,49.5,44.2,30.16,NW,311,0.0,0.0,82,0.00,,,0.01,Wunderground v.1.15,2013-10-21 14:30:00,
2013-10-21 10:35:00,50.1,44.5,30.15,NW,311,0.0,0.0,81,0.00,,,0.01,Wunderground v.1.15,2013-10-21 14:35:00,
2013-10-21 10:45:00,51.4,44.4,30.15,NW,311,0.0,0.0,77,0.00,,,0.01,Wunderground v.1.15,2013-10-21 14:45:00,
2013-10-21 10:50:00,51.9,45.6,30.16,NW,311,0.0,0.0,79,0.00,,,0.01,Wunderground v.1.15,2013-10-21 14:50:00,
2013-10-21 11:00:00,53.2,45.8,30.16,NW,311,0.0,0.0,76,0.00,,,0.01,Wunderground v.1.15,2013-10-21 15:00:00,
2013-10-21 11:10:00,54.7,47.6,30.15,NW,311,0.0,0.0,77,0.00,,,0.01,Wunderground v.1.15,2013-10-21 15:10:00,
2013-10-21 11:20:00,56.0,47.8,30.15,NW,311,0.0,0.0,74,0.00,,,0.01,Wunderground v.1.15,2013-10-21 15:20:00,
2013-10-21 11:25:00,56.3,46.3,30.15,NW,311,0.0,0.0,69,0.00,,,0.01,Wunderground v.1.15,2013-10-21 15:25:00,
2013-10-21 11:30:00,56.3,45.5,30.14,WNW,293,0.0,0.0,67,0.00,,,0.01,Wunderground v.1.15,2013-10-21 15:30:00,
2013-10-21 11:40:00,56.9,45.7,30.14,South,190,0.0,0.0,66,0.00,,,0.01,Wunderground v.1.15,2013-10-21 15:40:00,
2013-10-21 11:50:00,57.3,46.4,30.14,SW,222,1.0,1.0,67,0.00,,,0.01,Wunderground v.1.15,2013-10-21 15:50:00,
2013-10-21 12:00:00,57.6,45.5,30.14,SSE,158,0.0,0.0,64,0.00,,,0.01,Wunderground v.1.15,2013-10-21 16:00:00,
2013-10-21 12:10:00,58.3,45.8,30.13,SSW,201,4.0,4.0,63,0.00,,,0.01,Wunderground v.1.15,2013-10-21 16:10:00,
2013-10-21 12:20:00,57.8,44.4,30.13,SSW,199,2.0,2.0,61,0.00,,,0.01,Wunderground v.1.15,2013-10-21 16:20:00,
2013-10-21 12:25:00,58.1,45.1,30.13,SSW,204,2.0,5.0,62,0.00,,,0.01,Wunderground v.1.15,2013-10-21 16:25:00,
2013-10-21 12:30:00,58.1,45.1,30.13,SW,224,1.0,2.0,62,0.00,,,0.01,Wunderground v.1.15,2013-10-21 16:30:00,
2013-10-21 12:40:00,58.7,45.7,30.13,South,179,1.0,1.0,62,0.00,,,0.01,Wunderground v.1.15,2013-10-21 16:40:00,
2013-10-21 12:50:00,59.0,45.1,30.12,South,178,1.0,1.0,60,0.00,,,0.01,Wunderground v.1.15,2013-10-21 16:50:00,
2013-10-21 13:00:00,59.5,44.7,30.12,SW,227,2.0,2.0,58,0.00,,,0.01,Wunderground v.1.15,2013-10-21 17:00:00,
2013-10-21 13:10:00,59.9,44.2,30.11,SSW,206,2.0,2.0,56,0.00,,,0.01,Wunderground v.1.15,2013-10-21 17:10:00,
2013-10-21 13:20:00,60.2,44.4,30.11,SSW,194,3.0,5.0,56,0.00,,,0.01,Wunderground v.1.15,2013-10-21 17:20:00,
2013-10-21 13:25:00,60.7,44.9,30.10,South,179,3.0,5.0,56,0.00,,,0.01,Wunderground v.1.15,2013-10-21 17:25:00,
2013-10-21 13:30:00,61.2,47.2,30.10,South,184,3.0,5.0,60,0.00,,,0.01,Wunderground v.1.15,2013-10-21 17:30:00,
2013-10-21 13:35:00,61.6,44.8,30.09,WSW,242,4.0,5.0,54,0.00,,,0.01,Wunderground v.1.15,2013-10-21 17:35:00,
2013-10-21 13:45:00,61.8,45.0,30.09,SW,232,4.0,6.0,54,0.00,,,0.01,Wunderground v.1.15,2013-10-21 17:45:00,
2013-10-21 13:50:00,62.0,43.7,30.09,West,277,4.0,6.0,51,0.00,,,0.01,Wunderground v.1.15,2013-10-21 17:50:00,
2013-10-21 14:00:00,62.4,43.5,30.08,SSW,205,5.0,5.0,50,0.00,,,0.01,Wunderground v.1.15,2013-10-21 18:00:00,
2013-10-21 14:10:00,62.7,41.6,30.08,South,178,7.0,8.0,46,0.00,,,0.01,Wunderground v.1.15,2013-10-21 18:10:00,
2013-10-21 14:20:00,62.7,42.2,30.07,South,188,6.0,6.0,47,0.00,,,0.01,Wunderground v.1.15,2013-10-21 18:20:00,
2013-10-21 14:30:00,62.7,42.2,30.07,SW,219,6.0,9.0,47,0.00,,,0.01,Wunderground v.1.15,2013-10-21 18:30:00,
2013-10-21 14:40:00,62.7,41.6,30.06,SSW,196,7.0,7.0,46,0.00,,,0.01,Wunderground v.1.15,2013-10-21 18:40:00,
2013-10-21 14:45:00,63.2,43.2,30.06,SSW,207,7.0,7.0,48,0.00,,,0.01,Wunderground v.1.15,2013-10-21 18:45:00,
2013-10-21 14:50:00,63.2,43.2,30.05,SSW,195,6.0,6.0,48,0.00,,,0.01,Wunderground v.1.15,2013-10-21 18:50:00,
2013-10-21 15:00:00,63.2,42.6,30.05,SW,222,6.0,6.0,47,0.00,,,0.01,Wunderground v.1.15,2013-10-21 19:00:00,
2013-10-21 15:10:00,63.9,42.1,30.05,WSW,241,6.0,6.0,45,0.00,,,0.01,Wunderground v.1.15,2013-10-21 19:10:00,
2013-10-21 15:20:00,63.7,42.5,30.04,SW,230,7.0,14.0,46,0.00,,,0.01,Wunderground v.1.15,2013-10-21 19:20:00,
2013-10-21 15:30:00,63.5,41.2,30.03,SW,232,9.0,9.0,44,0.00,,,0.01,Wunderground v.1.15,2013-10-21 19:30:00,
2013-10-21 15:35:00,63.7,41.9,30.03,SSW,211,8.0,9.0,45,0.00,,,0.01,Wunderground v.1.15,2013-10-21 19:35:00,
2013-10-21 15:45:00,63.2,40.9,30.04,SW,223,6.0,11.0,44,0.00,,,0.01,Wunderground v.1.15,2013-10-21 19:45:00,
2013-10-21 15:55:00,64.0,42.8,30.04,SW,230,6.0,8.0,46,0.00,,,0.01,Wunderground v.1.15,2013-10-21 19:55:00,
2013-10-21 16:00:00,63.9,42.1,30.03,SW,225,6.0,8.0,45,0.00,,,0.01,Wunderground v.1.15,2013-10-21 20:00:00,
2013-10-21 16:10:00,63.7,42.5,30.03,SSW,202,6.0,6.0,46,0.00,,,0.01,Wunderground v.1.15,2013-10-21 20:10:00,
2013-10-21 16:20:00,63.9,42.1,30.03,SSW,204,6.0,7.0,45,0.00,,,0.01,Wunderground v.1.15,2013-10-21 20:20:00,
2013-10-21 16:25:00,64.0,42.2,30.02,SSW,205,7.0,7.0,45,0.00,,,0.01,Wunderground v.1.15,2013-10-21 20:25:00,
2013-10-21 16:30:00,64.2,41.8,30.02,SSW,196,6.0,6.0,44,0.00,,,0.01,Wunderground v.1.15,2013-10-21 20:30:00,
2013-10-21 16:40:00,64.3,43.6,30.03,SSW,200,5.0,6.0,47,0.00,,,0.01,Wunderground v.1.15,2013-10-21 20:40:00,
2013-10-21 16:50:00,63.4,42.8,30.03,SSW,208,4.0,4.0,47,0.00,,,0.01,Wunderground v.1.15,2013-10-21 20:50:00,
2013-10-21 17:00:00,62.9,42.4,30.04,SSW,194,4.0,4.0,47,0.00,,,0.01,Wunderground v.1.15,2013-10-21 21:00:00,
2013-10-21 17:10:00,62.3,42.9,30.04,SSW,213,3.0,3.0,49,0.00,,,0.01,Wunderground v.1.15,2013-10-21 21:10:00,
2013-10-21 17:20:00,62.6,43.2,30.03,SW,219,3.0,3.0,49,0.00,,,0.01,Wunderground v.1.15,2013-10-21 21:20:00,
2013-10-21 17:30:00,62.7,42.7,30.03,SW,221,2.0,4.0,48,0.00,,,0.01,Wunderground v.1.15,2013-10-21 21:30:00,
2013-10-21 17:35:00,62.3,42.3,30.03,SW,230,2.0,4.0,48,0.00,,,0.01,Wunderground v.1.15,2013-10-21 21:35:00,
2013-10-21 17:45:00,61.0,41.7,30.03,SW,221,1.0,5.0,49,0.00,,,0.01,Wunderground v.1.15,2013-10-21 21:45:00,
2013-10-21 17:55:00,60.1,41.4,30.04,SW,218,0.0,1.0,50,0.00,,,0.01,Wunderground v.1.15,2013-10-21 21:55:00,
2013-10-21 18:05:00,59.5,42.3,30.03,SW,219,0.0,0.0,53,0.00,,,0.01,Wunderground v.1.15,2013-10-21 22:05:00,
2013-10-21 18:10:00,59.2,42.6,30.04,SW,219,0.0,0.0,54,0.00,,,0.01,Wunderground v.1.15,2013-10-21 22:10:00,
2013-10-21 18:15:00,59.0,42.8,30.04,SW,219,0.0,0.0,55,0.00,,,0.01,Wunderground v.1.15,2013-10-21 22:15:00,
2013-10-21 18:20:00,58.7,42.6,30.04,SW,219,0.0,0.0,55,0.00,,,0.01,Wunderground v.1.15,2013-10-21 22:20:00,
2013-10-21 18:25:00,58.3,43.1,30.04,SW,219,0.0,0.0,57,0.00,,,0.01,Wunderground v.1.15,2013-10-21 22:25:00,
2013-10-21 18:30:00,57.8,42.7,30.04,SW,219,0.0,0.0,57,0.00,,,0.01,Wunderground v.1.15,2013-10-21 22:30:00,
2013-10-21 18:35:00,57.2,42.5,30.04,SW,219,0.0,0.0,58,0.00,,,0.01,Wunderground v.1.15,2013-10-21 22:35:00,
2013-10-21 18:40:00,56.5,42.8,30.04,SW,219,0.0,0.0,60,0.00,,,0.01,Wunderground v.1.15,2013-10-21 22:40:00,
2013-10-21 18:45:00,55.7,42.9,30.04,SW,219,0.0,0.0,62,0.00,,,0.01,Wunderground v.1.15,2013-10-21 22:45:00,
2013-10-21 18:50:00,55.0,42.6,30.04,SW,219,0.0,0.0,63,0.00,,,0.01,Wunderground v.1.15,2013-10-21 22:50:00,
2013-10-21 18:55:00,54.2,42.7,30.04,SW,219,0.0,0.0,65,0.00,,,0.01,Wunderground v.1.15,2013-10-21 22:55:00,
2013-10-21 19:05:00,53.1,42.4,30.04,SW,219,0.0,0.0,67,0.00,,,0.01,Wunderground v.1.15,2013-10-21 23:05:00,
2013-10-21 19:10:00,52.5,42.6,30.04,SW,219,0.0,0.0,69,0.00,,,0.01,Wunderground v.1.15,2013-10-21 23:10:00,
2013-10-21 19:20:00,51.3,42.2,30.04,SW,219,0.0,0.0,71,0.00,,,0.01,Wunderground v.1.15,2013-10-21 23:20:00,
2013-10-21 19:30:00,50.7,42.4,30.04,SW,219,0.0,0.0,73,0.00,,,0.01,Wunderground v.1.15,2013-10-21 23:30:00,
2013-10-21 19:35:00,50.2,41.9,30.04,SW,219,0.0,0.0,73,0.00,,,0.01,Wunderground v.1.15,2013-10-21 23:35:00,
2013-10-21 19:40:00,49.8,42.2,30.04,SW,219,0.0,0.0,75,0.00,,,0.01,Wunderground v.1.15,2013-10-21 23:40:00,
2013-10-21 19:50:00,48.9,42.3,30.04,SW,219,0.0,0.0,78,0.00,,,0.01,Wunderground v.1.15,2013-10-21 23:50:00,
2013-10-21 20:00:00,48.2,41.7,30.05,SW,219,0.0,0.0,78,0.00,,,0.01,Wunderground v.1.15,2013-10-22 00:00:00,
2013-10-21 20:05:00,47.7,41.5,30.05,SW,219,0.0,0.0,79,0.00,,,0.01,Wunderground v.1.15,2013-10-22 00:05:00,
2013-10-21 20:10:00,47.4,41.5,30.05,SW,219,0.0,0.0,80,0.00,,,0.01,Wunderground v.1.15,2013-10-22 00:10:00,
2013-10-21 20:15:00,47.1,41.2,30.04,SW,219,0.0,0.0,80,0.00,,,0.01,Wunderground v.1.15,2013-10-22 00:15:00,
2013-10-21 20:20:00,46.8,41.3,30.05,SW,219,0.0,0.0,81,0.00,,,0.01,Wunderground v.1.15,2013-10-22 00:20:00,
2013-10-21 20:30:00,46.4,41.2,30.05,SW,219,0.0,0.0,82,0.00,,,0.01,Wunderground v.1.15,2013-10-22 00:30:00,
2013-10-21 20:40:00,46.0,41.1,30.05,SW,219,0.0,0.0,83,0.00,,,0.01,Wunderground v.1.15,2013-10-22 00:40:00,
2013-10-21 20:45:00,45.8,41.2,30.05,SW,219,0.0,0.0,84,0.00,,,0.01,Wunderground v.1.15,2013-10-22 00:45:00,
2013-10-21 20:55:00,45.7,41.4,30.04,SW,219,0.0,0.0,85,0.00,,,0.01,Wunderground v.1.15,2013-10-22 00:55:00,
2013-10-21 21:00:00,45.5,40.9,30.04,SW,219,0.0,0.0,84,0.00,,,0.01,Wunderground v.1.15,2013-10-22 01:00:00,
2013-10-21 21:05:00,45.2,41.0,30.05,SW,219,0.0,0.0,85,0.00,,,0.01,Wunderground v.1.15,2013-10-22 01:05:00,
2013-10-21 21:10:00,45.1,40.9,30.04,SW,219,0.0,0.0,85,0.00,,,0.01,Wunderground v.1.15,2013-10-22 01:10:00,
2013-10-21 21:20:00,44.8,40.9,30.04,SW,219,0.0,0.0,86,0.00,,,0.01,Wunderground v.1.15,2013-10-22 01:20:00,
2013-10-21 21:30:00,44.8,41.5,30.04,SW,219,0.0,0.0,88,0.00,,,0.01,Wunderground v.1.15,2013-10-22 01:30:00,
2013-10-21 21:40:00,44.9,41.6,30.04,SW,219,0.0,0.0,88,0.00,,,0.01,Wunderground v.1.15,2013-10-22 01:40:00,
2013-10-21 21:45:00,45.1,41.8,30.04,SW,219,0.0,0.0,88,0.00,,,0.01,Wunderground v.1.15,2013-10-22 01:45:00,
2013-10-21 21:50:00,45.1,41.8,30.04,SW,219,0.0,0.0,88,0.00,,,0.01,Wunderground v.1.15,2013-10-22 01:50:00,
2013-10-21 21:55:00,44.9,41.6,30.04,SW,219,0.0,0.0,88,0.00,,,0.01,Wunderground v.1.15,2013-10-22 01:55:00,
2013-10-21 22:00:00,44.8,41.5,30.04,SW,219,0.0,0.0,88,0.00,,,0.01,Wunderground v.1.15,2013-10-22 02:00:00,
2013-10-21 22:10:00,44.5,41.5,30.04,SW,219,0.0,0.0,89,0.00,,,0.01,Wunderground v.1.15,2013-10-22 02:10:00,
2013-10-21 22:15:00,44.3,41.0,30.04,SW,219,0.0,0.0,88,0.00,,,0.01,Wunderground v.1.15,2013-10-22 02:15:00,
2013-10-21 22:20:00,44.2,40.9,30.04,SW,219,0.0,0.0,88,0.00,,,0.01,Wunderground v.1.15,2013-10-22 02:20:00,
2013-10-21 22:30:00,43.6,40.6,30.04,SW,219,0.0,0.0,89,0.00,,,0.01,Wunderground v.1.15,2013-10-22 02:30:00,
2013-10-21 22:40:00,43.5,41.0,30.03,SW,219,0.0,0.0,91,0.00,,,0.01,Wunderground v.1.15,2013-10-22 02:40:00,
2013-10-21 22:50:00,43.3,40.6,30.03,SW,219,0.0,0.0,90,0.00,,,0.01,Wunderground v.1.15,2013-10-22 02:50:00,
2013-10-21 22:55:00,43.2,40.5,30.03,SW,219,0.0,0.0,90,0.00,,,0.01,Wunderground v.1.15,2013-10-22 02:55:00,
2013-10-21 23:05:00,42.9,40.5,30.03,SW,219,0.0,0.0,91,0.00,,,0.01,Wunderground v.1.15,2013-10-22 03:05:00,
2013-10-21 23:10:00,42.6,39.9,30.03,SW,219,0.0,0.0,90,0.00,,,0.01,Wunderground v.1.15,2013-10-22 03:10:00,
2013-10-21 23:15:00,42.5,39.8,30.03,SW,219,0.0,0.0,90,0.00,,,0.01,Wunderground v.1.15,2013-10-22 03:15:00,
2013-10-21 23:20:00,42.2,39.8,30.03,SW,219,0.0,0.0,91,0.00,,,0.01,Wunderground v.1.15,2013-10-22 03:20:00,
2013-10-21 23:25:00,42.1,39.9,30.03,SW,219,0.0,0.0,92,0.00,,,0.01,Wunderground v.1.15,2013-10-22 03:25:00,
2013-10-21 23:30:00,41.9,39.7,30.03,SW,219,0.0,0.0,92,0.00,,,0.01,Wunderground v.1.15,2013-10-22 03:30:00,
2013-10-21 23:40:00,41.6,39.4,30.02,SW,219,0.0,0.0,92,0.00,,,0.01,Wunderground v.1.15,2013-10-22 03:40:00,
2013-10-21 23:45:00,41.3,39.2,30.02,SW,219,0.0,0.0,92,0.00,,,0.01,Wunderground v.1.15,2013-10-22 03:45:00,
2013-10-21 23:50:00,41.2,39.1,30.03,SW,219,0.0,0.0,92,0.00,,,0.01,Wunderground v.1.15,2013-10-22 03:50:00,
2013-10-21 23:55:00,40.9,38.8,30.03,SW,219,0.0,0.0,92,0.00,,,0.01,Wunderground v.1.15,2013-10-22 03:55:00,